OEEMG LOLH-EDDS
Flight info
| Callsign | OEEMG |
|---|---|
| Flight time | 0h 54m |
| Altitude | 28000 |
| Route | LOLH DCT BAGSI DCT VELOM DCT ESEGA DCT BIBAG DCT DETEX Z79 ABGAS DCT TEKSI TEKS5A EDDS |
| Aircraft | TBM9/L-SDFGRWY/S |
Departure
| Time | 2026-05-05 18:14 |
|---|---|
| Airport | Hofkirchen Airfield (LOLH) |
Arrival
| Time | 2026-05-05 19:08 |
|---|---|
| Airport | Stuttgart Airport (EDDS) |
| Time | Latitude | Longitude | Altitude | Speed | Heading |
|---|---|---|---|---|---|
| 2026-05-05 18:00 | 48.13918 | 14.33304 | 1176 ft | 0 kts | 345° |
| 2026-05-05 18:09 | 48.13919 | 14.33304 | 1183 ft | 1 kts | 351° |
| 2026-05-05 18:09 | 48.13922 | 14.33305 | 1180 ft | 0 kts | 23° |
| 2026-05-05 18:10 | 48.13925 | 14.33308 | 1181 ft | 1 kts | 38° |
| 2026-05-05 18:10 | 48.13927 | 14.33311 | 1181 ft | 1 kts | 39° |
| 2026-05-05 18:10 | 48.13928 | 14.33312 | 1181 ft | 0 kts | 40° |
| 2026-05-05 18:10 | 48.13934 | 14.33323 | 1182 ft | 2 kts | 71° |
| 2026-05-05 18:11 | 48.13924 | 14.33339 | 1181 ft | 3 kts | 182° |
| 2026-05-05 18:11 | 48.13894 | 14.33347 | 1184 ft | 5 kts | 160° |
| 2026-05-05 18:11 | 48.13891 | 14.33405 | 1181 ft | 8 kts | 80° |
| 2026-05-05 18:11 | 48.13902 | 14.33502 | 1184 ft | 12 kts | 81° |
| 2026-05-05 18:12 | 48.13919 | 14.33645 | 1183 ft | 16 kts | 81° |
| 2026-05-05 18:12 | 48.13940 | 14.33822 | 1180 ft | 17 kts | 78° |
| 2026-05-05 18:12 | 48.13952 | 14.33906 | 1177 ft | 5 kts | 183° |
| 2026-05-05 18:12 | 48.13949 | 14.33903 | 1177 ft | 0 kts | 243° |
| 2026-05-05 18:13 | 48.13949 | 14.33902 | 1179 ft | 0 kts | 243° |
| 2026-05-05 18:13 | 48.13947 | 14.33898 | 1179 ft | 0 kts | 254° |
| 2026-05-05 18:13 | 48.13942 | 14.33855 | 1180 ft | 24 kts | 259° |
| 2026-05-05 18:14 | 48.13877 | 14.33297 | 1254 ft | 75 kts | 260° |
| 2026-05-05 18:14 | 48.13745 | 14.32513 | 1662 ft | 81 kts | 247° |
| 2026-05-05 18:14 | 48.13245 | 14.31945 | 1968 ft | 108 kts | 191° |
| 2026-05-05 18:14 | 48.12388 | 14.31885 | 2257 ft | 136 kts | 178° |
| 2026-05-05 18:15 | 48.11346 | 14.31963 | 2392 ft | 165 kts | 176° |
| 2026-05-05 18:15 | 48.10105 | 14.32162 | 2415 ft | 190 kts | 174° |
| 2026-05-05 18:15 | 48.08752 | 14.32534 | 2551 ft | 202 kts | 168° |
| 2026-05-05 18:15 | 48.07407 | 14.32838 | 2957 ft | 189 kts | 181° |
| 2026-05-05 18:16 | 48.06136 | 14.32546 | 3326 ft | 189 kts | 198° |
| 2026-05-05 18:16 | 48.04862 | 14.31941 | 3535 ft | 195 kts | 200° |
| 2026-05-05 18:16 | 48.03700 | 14.30963 | 3827 ft | 189 kts | 230° |
| 2026-05-05 18:16 | 48.03254 | 14.29239 | 4416 ft | 178 kts | 269° |
| 2026-05-05 18:17 | 48.03513 | 14.27457 | 5037 ft | 174 kts | 285° |
| 2026-05-05 18:17 | 48.03871 | 14.25766 | 5689 ft | 167 kts | 285° |
| 2026-05-05 18:17 | 48.04226 | 14.24141 | 6344 ft | 162 kts | 285° |
| 2026-05-05 18:17 | 48.04572 | 14.22574 | 6971 ft | 156 kts | 285° |
| 2026-05-05 18:18 | 48.04908 | 14.21049 | 7618 ft | 153 kts | 285° |
| 2026-05-05 18:18 | 48.05238 | 14.19568 | 8266 ft | 147 kts | 285° |
| 2026-05-05 18:18 | 48.05560 | 14.18145 | 8937 ft | 142 kts | 285° |
| 2026-05-05 18:18 | 48.05874 | 14.16753 | 9551 ft | 142 kts | 284° |
| 2026-05-05 18:19 | 48.06328 | 14.15407 | 10063 ft | 148 kts | 297° |
| 2026-05-05 18:19 | 48.06897 | 14.14109 | 10587 ft | 150 kts | 297° |
| 2026-05-05 18:19 | 48.07473 | 14.12782 | 11123 ft | 153 kts | 297° |
| 2026-05-05 18:19 | 48.08052 | 14.11443 | 11665 ft | 154 kts | 297° |
| 2026-05-05 18:20 | 48.08637 | 14.10086 | 12217 ft | 156 kts | 297° |
| 2026-05-05 18:20 | 48.09044 | 14.09201 | 12580 ft | 157 kts | 306° |
| 2026-05-05 18:20 | 48.10049 | 14.07605 | 13343 ft | 156 kts | 301° |
| 2026-05-05 18:20 | 48.10513 | 14.06182 | 13885 ft | 150 kts | 284° |
| 2026-05-05 18:21 | 48.10833 | 14.04713 | 14397 ft | 147 kts | 282° |
| 2026-05-05 18:21 | 48.11141 | 14.03241 | 14838 ft | 150 kts | 281° |
| 2026-05-05 18:21 | 48.11458 | 14.01717 | 15235 ft | 157 kts | 281° |
| 2026-05-05 18:21 | 48.11783 | 14.00157 | 15648 ft | 161 kts | 281° |
| 2026-05-05 18:22 | 48.12119 | 13.98538 | 16092 ft | 164 kts | 281° |
| 2026-05-05 18:22 | 48.12459 | 13.96899 | 16551 ft | 166 kts | 281° |
| 2026-05-05 18:22 | 48.12802 | 13.95244 | 17016 ft | 167 kts | 281° |
| 2026-05-05 18:22 | 48.13148 | 13.93577 | 17496 ft | 168 kts | 280° |
| 2026-05-05 18:23 | 48.13495 | 13.91900 | 17975 ft | 169 kts | 280° |
| 2026-05-05 18:23 | 48.13844 | 13.90211 | 18416 ft | 170 kts | 280° |
| 2026-05-05 18:23 | 48.14196 | 13.88508 | 18836 ft | 171 kts | 279° |
| 2026-05-05 18:23 | 48.14549 | 13.86797 | 19273 ft | 172 kts | 279° |
| 2026-05-05 18:24 | 48.14904 | 13.85075 | 19725 ft | 174 kts | 279° |
| 2026-05-05 18:24 | 48.15262 | 13.83332 | 20192 ft | 176 kts | 279° |
| 2026-05-05 18:24 | 48.15626 | 13.81568 | 20665 ft | 178 kts | 279° |
| 2026-05-05 18:24 | 48.15993 | 13.79782 | 21160 ft | 180 kts | 279° |
| 2026-05-05 18:25 | 48.16239 | 13.78590 | 21497 ft | 181 kts | 278° |
| 2026-05-05 18:25 | 48.16491 | 13.77368 | 21867 ft | 182 kts | 278° |
| 2026-05-05 18:25 | 48.16987 | 13.74948 | 22563 ft | 184 kts | 277° |
| 2026-05-05 18:25 | 48.17363 | 13.73117 | 23104 ft | 185 kts | 277° |
| 2026-05-05 18:26 | 48.17740 | 13.71273 | 23594 ft | 185 kts | 277° |
| 2026-05-05 18:26 | 48.18118 | 13.69428 | 24060 ft | 185 kts | 277° |
| 2026-05-05 18:26 | 48.18496 | 13.67581 | 24529 ft | 186 kts | 277° |
| 2026-05-05 18:26 | 48.18874 | 13.65731 | 25008 ft | 185 kts | 277° |
| 2026-05-05 18:27 | 48.19252 | 13.63880 | 25489 ft | 185 kts | 277° |
| 2026-05-05 18:27 | 48.19629 | 13.62034 | 25980 ft | 185 kts | 277° |
| 2026-05-05 18:27 | 48.20004 | 13.60191 | 26472 ft | 185 kts | 277° |
| 2026-05-05 18:27 | 48.20374 | 13.58376 | 26960 ft | 184 kts | 277° |
| 2026-05-05 18:28 | 48.21121 | 13.54675 | 27769 ft | 195 kts | 277° |
| 2026-05-05 18:28 | 48.21535 | 13.52596 | 27784 ft | 219 kts | 278° |
| 2026-05-05 18:28 | 48.22003 | 13.50301 | 27782 ft | 240 kts | 279° |
| 2026-05-05 18:29 | 48.22572 | 13.47844 | 27784 ft | 258 kts | 282° |
| 2026-05-05 18:29 | 48.23202 | 13.45259 | 27790 ft | 271 kts | 283° |
| 2026-05-05 18:29 | 48.23854 | 13.42543 | 27789 ft | 281 kts | 283° |
| 2026-05-05 18:29 | 48.24521 | 13.39735 | 27788 ft | 290 kts | 283° |
| 2026-05-05 18:30 | 48.25208 | 13.36844 | 27791 ft | 297 kts | 283° |
| 2026-05-05 18:30 | 48.25908 | 13.33906 | 27795 ft | 302 kts | 283° |
| 2026-05-05 18:30 | 48.26617 | 13.30921 | 27791 ft | 305 kts | 283° |
| 2026-05-05 18:30 | 48.27331 | 13.27902 | 27800 ft | 308 kts | 283° |
| 2026-05-05 18:31 | 48.28050 | 13.24862 | 27795 ft | 310 kts | 283° |
| 2026-05-05 18:31 | 48.28771 | 13.21802 | 27798 ft | 311 kts | 283° |
| 2026-05-05 18:31 | 48.29496 | 13.18728 | 27800 ft | 312 kts | 283° |
| 2026-05-05 18:31 | 48.30221 | 13.15647 | 27797 ft | 313 kts | 283° |
| 2026-05-05 18:32 | 48.30946 | 13.12562 | 27808 ft | 314 kts | 283° |
| 2026-05-05 18:32 | 48.31663 | 13.09507 | 27800 ft | 314 kts | 283° |
| 2026-05-05 18:32 | 48.32392 | 13.06396 | 27807 ft | 315 kts | 283° |
| 2026-05-05 18:32 | 48.33120 | 13.03290 | 27805 ft | 315 kts | 283° |
| 2026-05-05 18:33 | 48.33847 | 13.00172 | 27800 ft | 315 kts | 283° |
| 2026-05-05 18:33 | 48.34573 | 12.97059 | 27813 ft | 317 kts | 283° |
| 2026-05-05 18:33 | 48.35301 | 12.93934 | 27806 ft | 317 kts | 283° |
| 2026-05-05 18:33 | 48.36028 | 12.90802 | 27799 ft | 318 kts | 283° |
| 2026-05-05 18:34 | 48.36759 | 12.87659 | 27802 ft | 318 kts | 283° |
| 2026-05-05 18:34 | 48.37490 | 12.84510 | 27802 ft | 319 kts | 283° |
| 2026-05-05 18:34 | 48.38220 | 12.81359 | 27801 ft | 319 kts | 283° |
| 2026-05-05 18:34 | 48.38948 | 12.78207 | 27802 ft | 319 kts | 282° |
| 2026-05-05 18:35 | 48.39478 | 12.75006 | 27805 ft | 314 kts | 274° |
| 2026-05-05 18:35 | 48.39677 | 12.71756 | 27808 ft | 309 kts | 265° |
| 2026-05-05 18:35 | 48.39654 | 12.68531 | 27806 ft | 309 kts | 264° |
| 2026-05-05 18:35 | 48.39644 | 12.65301 | 27814 ft | 310 kts | 264° |
| 2026-05-05 18:36 | 48.39634 | 12.62055 | 27818 ft | 310 kts | 264° |
| 2026-05-05 18:36 | 48.39614 | 12.58855 | 27819 ft | 310 kts | 265° |
| 2026-05-05 18:36 | 48.39616 | 12.55612 | 27817 ft | 310 kts | 265° |
| 2026-05-05 18:36 | 48.39610 | 12.52374 | 27823 ft | 308 kts | 264° |
| 2026-05-05 18:37 | 48.39575 | 12.49146 | 27818 ft | 307 kts | 264° |
| 2026-05-05 18:37 | 48.39541 | 12.45935 | 27820 ft | 307 kts | 264° |
| 2026-05-05 18:37 | 48.39524 | 12.42718 | 27820 ft | 307 kts | 265° |
| 2026-05-05 18:37 | 48.39503 | 12.39512 | 27820 ft | 307 kts | 264° |
| 2026-05-05 18:38 | 48.39477 | 12.36298 | 27821 ft | 307 kts | 264° |
| 2026-05-05 18:38 | 48.39438 | 12.33094 | 27820 ft | 305 kts | 262° |
| 2026-05-05 18:38 | 48.39212 | 12.29932 | 27817 ft | 304 kts | 259° |
| 2026-05-05 18:38 | 48.38980 | 12.26758 | 27818 ft | 304 kts | 259° |
| 2026-05-05 18:39 | 48.38762 | 12.23590 | 27817 ft | 304 kts | 259° |
| 2026-05-05 18:39 | 48.38532 | 12.20420 | 27818 ft | 304 kts | 259° |
| 2026-05-05 18:39 | 48.38297 | 12.17262 | 27820 ft | 304 kts | 259° |
| 2026-05-05 18:39 | 48.38062 | 12.14138 | 27821 ft | 304 kts | 259° |
| 2026-05-05 18:40 | 48.37940 | 12.10955 | 27833 ft | 309 kts | 266° |
| 2026-05-05 18:40 | 48.38143 | 12.07721 | 27839 ft | 313 kts | 274° |
| 2026-05-05 18:40 | 48.38631 | 12.04515 | 27835 ft | 315 kts | 278° |
| 2026-05-05 18:40 | 48.39149 | 12.01305 | 27832 ft | 315 kts | 278° |
| 2026-05-05 18:41 | 48.39660 | 11.98102 | 27833 ft | 315 kts | 278° |
| 2026-05-05 18:41 | 48.40184 | 11.94898 | 27832 ft | 315 kts | 278° |
| 2026-05-05 18:41 | 48.40707 | 11.91695 | 27838 ft | 315 kts | 278° |
| 2026-05-05 18:41 | 48.41229 | 11.88478 | 27838 ft | 315 kts | 278° |
| 2026-05-05 18:42 | 48.41747 | 11.85273 | 27839 ft | 315 kts | 278° |
| 2026-05-05 18:42 | 48.42266 | 11.82060 | 27838 ft | 315 kts | 278° |
| 2026-05-05 18:42 | 48.42782 | 11.78855 | 27838 ft | 315 kts | 278° |
| 2026-05-05 18:42 | 48.43297 | 11.75648 | 27834 ft | 315 kts | 278° |
| 2026-05-05 18:43 | 48.43810 | 11.72467 | 27825 ft | 315 kts | 278° |
| 2026-05-05 18:43 | 48.44325 | 11.69243 | 27811 ft | 317 kts | 278° |
| 2026-05-05 18:43 | 48.44843 | 11.66015 | 27452 ft | 318 kts | 278° |
| 2026-05-05 18:43 | 48.45362 | 11.62778 | 27059 ft | 318 kts | 278° |
| 2026-05-05 18:44 | 48.45879 | 11.59534 | 26669 ft | 318 kts | 278° |
| 2026-05-05 18:44 | 48.46393 | 11.56295 | 26291 ft | 318 kts | 278° |
| 2026-05-05 18:44 | 48.46908 | 11.53059 | 25915 ft | 317 kts | 278° |
| 2026-05-05 18:44 | 48.47420 | 11.49831 | 25542 ft | 316 kts | 278° |
| 2026-05-05 18:45 | 48.47928 | 11.46613 | 25177 ft | 315 kts | 278° |
| 2026-05-05 18:45 | 48.48434 | 11.43403 | 24815 ft | 314 kts | 278° |
| 2026-05-05 18:45 | 48.48938 | 11.40207 | 24457 ft | 313 kts | 278° |
| 2026-05-05 18:45 | 48.49438 | 11.37027 | 24105 ft | 311 kts | 279° |
| 2026-05-05 18:46 | 48.49936 | 11.33852 | 23751 ft | 310 kts | 279° |
| 2026-05-05 18:46 | 48.50430 | 11.30697 | 23403 ft | 309 kts | 279° |
| 2026-05-05 18:46 | 48.50921 | 11.27550 | 23014 ft | 308 kts | 279° |
| 2026-05-05 18:46 | 48.51411 | 11.24410 | 22603 ft | 307 kts | 279° |
| 2026-05-05 18:47 | 48.51899 | 11.21280 | 22199 ft | 305 kts | 279° |
| 2026-05-05 18:47 | 48.52381 | 11.18174 | 21805 ft | 304 kts | 279° |
| 2026-05-05 18:47 | 48.52863 | 11.15069 | 21406 ft | 303 kts | 279° |
| 2026-05-05 18:47 | 48.53341 | 11.11989 | 21025 ft | 301 kts | 279° |
| 2026-05-05 18:48 | 48.53814 | 11.08919 | 20642 ft | 300 kts | 279° |
| 2026-05-05 18:48 | 48.54287 | 11.05849 | 20263 ft | 298 kts | 280° |
| 2026-05-05 18:48 | 48.54755 | 11.02814 | 19894 ft | 297 kts | 280° |
| 2026-05-05 18:48 | 48.55208 | 10.99850 | 19840 ft | 290 kts | 279° |
| 2026-05-05 18:49 | 48.55658 | 10.96886 | 19839 ft | 287 kts | 279° |
| 2026-05-05 18:49 | 48.56105 | 10.93961 | 19845 ft | 286 kts | 279° |
| 2026-05-05 18:49 | 48.56551 | 10.91048 | 19847 ft | 285 kts | 279° |
| 2026-05-05 18:49 | 48.56997 | 10.88124 | 19854 ft | 286 kts | 280° |
| 2026-05-05 18:50 | 48.57445 | 10.85190 | 19837 ft | 288 kts | 280° |
| 2026-05-05 18:50 | 48.57893 | 10.82231 | 19841 ft | 288 kts | 280° |
| 2026-05-05 18:50 | 48.58341 | 10.79283 | 19851 ft | 289 kts | 280° |
| 2026-05-05 18:50 | 48.58788 | 10.76324 | 19852 ft | 289 kts | 280° |
| 2026-05-05 18:51 | 48.59237 | 10.73355 | 19857 ft | 290 kts | 280° |
| 2026-05-05 18:51 | 48.59690 | 10.70351 | 19589 ft | 298 kts | 280° |
| 2026-05-05 18:51 | 48.60162 | 10.67256 | 19229 ft | 306 kts | 281° |
| 2026-05-05 18:51 | 48.60637 | 10.64136 | 18872 ft | 304 kts | 280° |
| 2026-05-05 18:52 | 48.61096 | 10.61034 | 18516 ft | 302 kts | 280° |
| 2026-05-05 18:52 | 48.61555 | 10.57942 | 18163 ft | 300 kts | 280° |
| 2026-05-05 18:52 | 48.62014 | 10.54877 | 17762 ft | 299 kts | 280° |
| 2026-05-05 18:52 | 48.62472 | 10.51817 | 17356 ft | 297 kts | 281° |
| 2026-05-05 18:53 | 48.62923 | 10.48780 | 16965 ft | 295 kts | 281° |
| 2026-05-05 18:53 | 48.63371 | 10.45765 | 16589 ft | 293 kts | 281° |
| 2026-05-05 18:53 | 48.63811 | 10.42813 | 16207 ft | 290 kts | 280° |
| 2026-05-05 18:53 | 48.64251 | 10.39821 | 15822 ft | 287 kts | 280° |
| 2026-05-05 18:54 | 48.64678 | 10.36926 | 15449 ft | 284 kts | 280° |
| 2026-05-05 18:54 | 48.65106 | 10.34022 | 15078 ft | 282 kts | 280° |
| 2026-05-05 18:54 | 48.65530 | 10.31142 | 14709 ft | 279 kts | 280° |
| 2026-05-05 18:54 | 48.65950 | 10.28280 | 14342 ft | 277 kts | 280° |
| 2026-05-05 18:55 | 48.66364 | 10.25449 | 13984 ft | 275 kts | 280° |
| 2026-05-05 18:55 | 48.66774 | 10.22655 | 13621 ft | 264 kts | 280° |
| 2026-05-05 18:55 | 48.67150 | 10.20016 | 13217 ft | 252 kts | 279° |
| 2026-05-05 18:55 | 48.67266 | 10.17439 | 12805 ft | 242 kts | 267° |
| 2026-05-05 18:56 | 48.67200 | 10.14933 | 12404 ft | 235 kts | 259° |
| 2026-05-05 18:56 | 48.67141 | 10.12466 | 12013 ft | 236 kts | 275° |
| 2026-05-05 18:56 | 48.67725 | 10.10135 | 11641 ft | 241 kts | 296° |
| 2026-05-05 18:56 | 48.68515 | 10.07932 | 11259 ft | 235 kts | 286° |
| 2026-05-05 18:57 | 48.68987 | 10.05571 | 10890 ft | 233 kts | 281° |
| 2026-05-05 18:57 | 48.69452 | 10.03240 | 10852 ft | 232 kts | 283° |
| 2026-05-05 18:57 | 48.69985 | 10.00899 | 10854 ft | 239 kts | 284° |
| 2026-05-05 18:57 | 48.70542 | 9.98511 | 10852 ft | 242 kts | 284° |
| 2026-05-05 18:58 | 48.71108 | 9.96090 | 10781 ft | 247 kts | 284° |
| 2026-05-05 18:58 | 48.71697 | 9.93576 | 10395 ft | 259 kts | 284° |
| 2026-05-05 18:58 | 48.72294 | 9.91057 | 10010 ft | 250 kts | 284° |
| 2026-05-05 18:58 | 48.72873 | 9.88598 | 9619 ft | 245 kts | 284° |
| 2026-05-05 18:59 | 48.73438 | 9.86185 | 9195 ft | 242 kts | 284° |
| 2026-05-05 18:59 | 48.73998 | 9.83794 | 8767 ft | 239 kts | 284° |
| 2026-05-05 18:59 | 48.74542 | 9.81463 | 8275 ft | 232 kts | 284° |
| 2026-05-05 18:59 | 48.75071 | 9.79169 | 7809 ft | 229 kts | 284° |
| 2026-05-05 19:00 | 48.75588 | 9.76900 | 7363 ft | 228 kts | 284° |
| 2026-05-05 19:00 | 48.76095 | 9.74674 | 6925 ft | 225 kts | 284° |
| 2026-05-05 19:00 | 48.76595 | 9.72437 | 6483 ft | 224 kts | 284° |
| 2026-05-05 19:00 | 48.77090 | 9.70212 | 6039 ft | 221 kts | 284° |
| 2026-05-05 19:01 | 48.77499 | 9.67984 | 5573 ft | 217 kts | 272° |
| 2026-05-05 19:01 | 48.77262 | 9.65751 | 5104 ft | 215 kts | 252° |
| 2026-05-05 19:01 | 48.76830 | 9.63638 | 5019 ft | 204 kts | 253° |
| 2026-05-05 19:01 | 48.76450 | 9.61617 | 5021 ft | 196 kts | 253° |
| 2026-05-05 19:02 | 48.76081 | 9.59651 | 5012 ft | 191 kts | 253° |
| 2026-05-05 19:02 | 48.75711 | 9.57689 | 5004 ft | 195 kts | 254° |
| 2026-05-05 19:02 | 48.75331 | 9.55697 | 5008 ft | 197 kts | 253° |
| 2026-05-05 19:02 | 48.74961 | 9.53723 | 5006 ft | 197 kts | 254° |
| 2026-05-05 19:03 | 48.74580 | 9.51725 | 4849 ft | 197 kts | 253° |
| 2026-05-05 19:03 | 48.74206 | 9.49730 | 4609 ft | 195 kts | 253° |
| 2026-05-05 19:03 | 48.73818 | 9.47708 | 4340 ft | 201 kts | 254° |
| 2026-05-05 19:03 | 48.73443 | 9.45686 | 4063 ft | 201 kts | 253° |
| 2026-05-05 19:04 | 48.73052 | 9.43651 | 3790 ft | 202 kts | 253° |
| 2026-05-05 19:04 | 48.72672 | 9.41613 | 3531 ft | 202 kts | 254° |
| 2026-05-05 19:04 | 48.72290 | 9.39617 | 3259 ft | 190 kts | 254° |
| 2026-05-05 19:04 | 48.71936 | 9.37744 | 3017 ft | 180 kts | 254° |
| 2026-05-05 19:05 | 48.71599 | 9.35980 | 2772 ft | 170 kts | 253° |
| 2026-05-05 19:05 | 48.71301 | 9.34415 | 2554 ft | 141 kts | 253° |
| 2026-05-05 19:05 | 48.71047 | 9.33078 | 2380 ft | 125 kts | 253° |
| 2026-05-05 19:05 | 48.70823 | 9.31884 | 2220 ft | 112 kts | 253° |
| 2026-05-05 19:06 | 48.70621 | 9.30814 | 2092 ft | 95 kts | 253° |
| 2026-05-05 19:06 | 48.70442 | 9.29889 | 1958 ft | 88 kts | 253° |
| 2026-05-05 19:06 | 48.70275 | 9.29007 | 1835 ft | 87 kts | 254° |
| 2026-05-05 19:06 | 48.70116 | 9.28165 | 1722 ft | 81 kts | 253° |
| 2026-05-05 19:07 | 48.69953 | 9.27325 | 1614 ft | 83 kts | 252° |
| 2026-05-05 19:07 | 48.69854 | 9.26770 | 1537 ft | 83 kts | 253° |
| 2026-05-05 19:07 | 48.69639 | 9.25656 | 1398 ft | 82 kts | 253° |
| 2026-05-05 19:07 | 48.69484 | 9.24813 | 1326 ft | 83 kts | 253° |
| 2026-05-05 19:08 | 48.69331 | 9.23996 | 1256 ft | 79 kts | 253° |
| 2026-05-05 19:08 | 48.69182 | 9.23233 | 1216 ft | 70 kts | 252° |
| 2026-05-05 19:08 | 48.69064 | 9.22636 | 1222 ft | 38 kts | 252° |
| 2026-05-05 19:08 | 48.69010 | 9.22336 | 1227 ft | 31 kts | 257° |
| 2026-05-05 19:09 | 48.68951 | 9.22009 | 1242 ft | 23 kts | 259° |
| 2026-05-05 19:09 | 48.68942 | 9.21789 | 1239 ft | 20 kts | 272° |
| 2026-05-05 19:09 | 48.68966 | 9.21573 | 1244 ft | 17 kts | 282° |
| 2026-05-05 19:09 | 48.68969 | 9.21553 | 1241 ft | 0 kts | 281° |
| 2026-05-05 19:12 | 48.68977 | 9.21508 | 1247 ft | 7 kts | 283° |
| 2026-05-05 19:12 | 48.68991 | 9.21429 | 1251 ft | 8 kts | 285° |
| 2026-05-05 19:12 | 48.68996 | 9.21333 | 1248 ft | 10 kts | 262° |
| 2026-05-05 19:12 | 48.68982 | 9.21256 | 1252 ft | 4 kts | 252° |
| 2026-05-05 19:13 | 48.68980 | 9.21244 | 1250 ft | 0 kts | 262° |
| 2026-05-05 19:14 | 48.68980 | 9.21242 | 1248 ft | 2 kts | 262° |
| 2026-05-05 19:14 | 48.68967 | 9.21164 | 1249 ft | 11 kts | 253° |
| 2026-05-05 19:14 | 48.68950 | 9.21091 | 1252 ft | 7 kts | 249° |
| 2026-05-05 19:14 | 48.68936 | 9.21019 | 1252 ft | 7 kts | 257° |
| 2026-05-05 19:15 | 48.68924 | 9.20943 | 1255 ft | 8 kts | 254° |
| 2026-05-05 19:15 | 48.68908 | 9.20856 | 1257 ft | 10 kts | 250° |
| 2026-05-05 19:15 | 48.68896 | 9.20747 | 1259 ft | 11 kts | 282° |
| 2026-05-05 19:15 | 48.68952 | 9.20668 | 1261 ft | 11 kts | 28° |
| 2026-05-05 19:16 | 48.68982 | 9.20792 | 1263 ft | 15 kts | 70° |
| 2026-05-05 19:16 | 48.69008 | 9.20932 | 1261 ft | 11 kts | 74° |
| 2026-05-05 19:16 | 48.69014 | 9.20968 | 1257 ft | 2 kts | 75° |
| 2026-05-05 19:16 | 48.69024 | 9.21017 | 1260 ft | 7 kts | 70° |
| 2026-05-05 19:17 | 48.69025 | 9.21025 | 1258 ft | 1 kts | 66° |
| 2026-05-05 19:17 | 48.69041 | 9.21047 | 1255 ft | 5 kts | 19° |
| 2026-05-05 19:17 | 48.69077 | 9.21039 | 1263 ft | 6 kts | 324° |
| 2026-05-05 19:17 | 48.69116 | 9.21031 | 1259 ft | 7 kts | 57° |
| 2026-05-05 19:18 | 48.69124 | 9.21084 | 1262 ft | 0 kts | 99° |
| 2026-05-05 19:18 | 48.69123 | 9.21099 | 1258 ft | 4 kts | 62° |
| 2026-05-05 19:18 | 48.69144 | 9.21171 | 1257 ft | 5 kts | 79° |
| 2026-05-05 19:18 | 48.69182 | 9.21205 | 1257 ft | 8 kts | 298° |
| 2026-05-05 19:19 | 48.69168 | 9.21179 | 1260 ft | 0 kts | 185° |